Queen Of The West — WDF4506 — position and weather

sailwx.info

Track history (hours):
 
Tides and Currents Weather Stations Pressure Air Temp Water Temp Dewpoint Dewpoint Depression Visibility Wind Speed Wind Dir Waves Ship Positions

Queen Of The West

Owner: American Cruise Lines Inc., Delmar, DE. More information available from US FCC via Universal Licensing System and Coast Guard Vessel Documentation Center.

Last reported at 2018-Apr-25 12:40 UTC. Time now 2018-Apr-26 03:40 UTC.
Position N 45°36' W 122°05'.

Length 19 m; draft 2 m.

Type: Passenger vessel. MMSI: 2548262.

Date/timePositionNaut miles runAvg speedWind from/ knotsBaromVisibWave heightAir tempDewpointWater temp
2018-Apr-25 12:40N 45°36' W 122°05'3 7.0
2018-Apr-25 12:18N 45°35' W 122°08'3 7.1
2018-Apr-25 11:52N 45°34' W 122°12'2 6.3
2018-Apr-25 11:30N 45°33' W 122°15'3 6.1
2018-Apr-25 11:00N 45°33' W 122°19'3 5.5
2018-Apr-25 10:30N 45°35' W 122°23'4 6.5
2018-Apr-25 09:57N 45°34' W 122°28'3 6.5
2018-Apr-25 09:30N 45°35' W 122°32'3 6.5
2018-Apr-25 09:00N 45°36' W 122°36'3 6.6
2018-Apr-25 08:30N 45°37' W 122°41'3 5.6
2018-Apr-25 08:00N 45°39' W 122°44'3 6.5
2018-Apr-25 07:30N 45°41' W 122°47'3 7.0
2018-Apr-25 07:00N 45°45' W 122°46'3 6.9
2018-Apr-25 06:30N 45°48' W 122°47'4 7.5
2018-Apr-25 06:01N 45°52' W 122°47'4 7.4
2018-Apr-25 05:30N 45°55' W 122°48'5 7.1
2018-Apr-25 04:51N 45°60' W 122°51'0 0.3
2018-Apr-25 04:30N 45°60' W 122°51'0 0.0
2018-Apr-25 03:42N 45°60' W 122°51'0 0.0
2018-Apr-25 03:30N 45°60' W 122°51'0 0.0
2018-Apr-25 03:00N 45°60' W 122°51'0 0.0
2018-Apr-25 02:30N 45°60' W 122°51'0 0.0
2018-Apr-25 01:57N 45°60' W 122°51'0 0.0
2018-Apr-25 01:27N 45°60' W 122°51'0 0.0
2018-Apr-25 01:00N 45°60' W 122°51'0 0.0
2018-Apr-25 00:30N 45°60' W 122°51'0 0.0
2018-Apr-24 23:54N 45°60' W 122°51'0 0.0
2018-Apr-24 23:30N 45°60' W 122°51'0 0.0
2018-Apr-24 23:00N 45°60' W 122°51'0 0.0
2018-Apr-24 22:31N 45°60' W 122°51'0 0.0
2018-Apr-24 22:00N 45°60' W 122°51'0 0.0
2018-Apr-24 21:30N 45°60' W 122°51'0 0.0
2018-Apr-24 20:41N 45°60' W 122°51'0 0.0
2018-Apr-24 20:31N 45°60' W 122°51'0 0.0
2018-Apr-24 20:01N 45°60' W 122°51'0 0.0
2018-Apr-24 19:30N 45°60' W 122°51'0 0.0
2018-Apr-24 19:00N 45°60' W 122°51'2 3.7
2018-Apr-24 18:30N 46°01' W 122°52'4 7.9
2018-Apr-24 18:00N 46°05' W 122°54'5 8.2
2018-Apr-24 17:21N 46°08' W 123°00'3 8.2
2018-Apr-24 17:01N 46°10' W 123°04'4 8.2
2018-Apr-24 16:31N 46°11' W 123°09'4 8.4
2018-Apr-24 16:00N 46°10' W 123°15'4 8.3
2018-Apr-24 15:30N 46°09' W 123°21'4 8.4
2018-Apr-24 15:00N 46°11' W 123°26'4 7.9
2018-Apr-24 14:30N 46°15' W 123°26'4 7.0
2018-Apr-24 14:00N 46°16' W 123°31'4 7.6
2018-Apr-24 13:30N 46°15' W 123°36'6 7.5
2018-Apr-24 12:44N 46°14' W 123°44'2 8.3
2018-Apr-24 12:31N 46°13' W 123°47'4 7.2
2018-Apr-24 12:01N 46°11' W 123°52'0 0.1
2018-Apr-24 11:28N 46°11' W 123°52'0 0.0
2018-Apr-24 10:58N 46°11' W 123°52'0 0.0
2018-Apr-24 10:28N 46°11' W 123°52'0 0.0
2018-Apr-24 09:58N 46°11' W 123°52'0 0.0
2018-Apr-24 09:28N 46°11' W 123°52'0 0.0
2018-Apr-24 08:58N 46°11' W 123°52'0 0.0
2018-Apr-24 08:28N 46°11' W 123°52'0 0.0
2018-Apr-24 07:58N 46°11' W 123°52'0 0.0
2018-Apr-24 07:28N 46°11' W 123°52'0 0.0
2018-Apr-24 06:58N 46°11' W 123°52'0 0.0
2018-Apr-24 06:28N 46°11' W 123°52'0 0.0
2018-Apr-24 05:58N 46°11' W 123°52'0 0.0
2018-Apr-24 05:28N 46°11' W 123°52'0 0.0
2018-Apr-24 04:58N 46°11' W 123°52'0 0.0
2018-Apr-24 04:25N 46°11' W 123°52'0 0.0
2018-Apr-24 03:58N 46°11' W 123°52'0 0.0
2018-Apr-24 03:28N 46°11' W 123°52'0 0.0
2018-Apr-24 02:58N 46°11' W 123°52'0 0.0
2018-Apr-24 02:28N 46°11' W 123°52'0 0.0
2018-Apr-24 01:58N 46°11' W 123°52'0 0.0
2018-Apr-24 01:28N 46°11' W 123°52'0 0.0
2018-Apr-24 00:52N 46°11' W 123°52'0 0.0
2018-Apr-24 00:28N 46°11' W 123°52'0 0.0
2018-Apr-23 23:58N 46°11' W 123°52'0 0.0
2018-Apr-23 23:28N 46°11' W 123°52'0 0.0
2018-Apr-23 22:58N 46°11' W 123°52'0 0.0
2018-Apr-23 22:28N 46°11' W 123°52'0 0.0
2018-Apr-23 21:52N 46°11' W 123°52'0 0.0
2018-Apr-23 21:28N 46°11' W 123°52'0 0.0
2018-Apr-23 20:58N 46°11' W 123°52'0 0.0
2018-Apr-23 20:25N 46°11' W 123°52'0 0.0
2018-Apr-23 19:58N 46°11' W 123°52'0 0.0
2018-Apr-23 19:10N 46°11' W 123°52'0 0.0
2018-Apr-23 18:58N 46°11' W 123°52'0 0.0
2018-Apr-23 18:25N 46°11' W 123°52'0 0.0
2018-Apr-23 17:55N 46°11' W 123°52'0 0.0
2018-Apr-23 17:28N 46°11' W 123°52'0 0.0
2018-Apr-23 16:58N 46°11' W 123°52'0 0.0
2018-Apr-23 16:16N 46°11' W 123°52'0 0.0
2018-Apr-23 15:58N 46°11' W 123°52'0 0.0
2018-Apr-23 15:28N 46°11' W 123°52'0 0.0
2018-Apr-23 14:58N 46°11' W 123°52'0 0.0
2018-Apr-23 14:25N 46°11' W 123°52'0 0.0
2018-Apr-23 13:58N 46°11' W 123°52'0 0.0
2018-Apr-23 13:28N 46°11' W 123°52'0 0.0
2018-Apr-23 12:58N 46°11' W 123°52'0 0.0
2018-Apr-23 12:25N 46°11' W 123°52'0 0.0
2018-Apr-23 11:58N 46°11' W 123°52'0 0.0
2018-Apr-23 11:28N 46°11' W 123°52'0 0.0
2018-Apr-23 10:58N 46°11' W 123°52'0 0.0
2018-Apr-23 10:25N 46°11' W 123°52'0 0.0
2018-Apr-23 09:58N 46°11' W 123°52'0 0.0
2018-Apr-23 09:28N 46°11' W 123°52'0 0.0
2018-Apr-23 08:58N 46°11' W 123°52'0 0.0
2018-Apr-23 08:28N 46°11' W 123°52'0 0.0
2018-Apr-23 07:58N 46°11' W 123°52'0 0.0
2018-Apr-23 07:28N 46°11' W 123°52'0 0.0
2018-Apr-23 06:58N 46°11' W 123°52'0 0.0
2018-Apr-23 06:28N 46°11' W 123°52'0 0.0
2018-Apr-23 05:58N 46°11' W 123°52'0 0.0
2018-Apr-23 05:28N 46°11' W 123°52'0 0.0
2018-Apr-23 04:55N 46°11' W 123°52'0 0.0
2018-Apr-23 04:28N 46°11' W 123°52'0 0.0
2018-Apr-23 03:58N 46°11' W 123°52'0 0.1
2018-Apr-23 03:30N 46°11' W 123°52'4 8.2
2018-Apr-23 03:00N 46°13' W 123°46'5 9.9
2018-Apr-23 02:30N 46°15' W 123°40'510.0
2018-Apr-23 02:00N 46°16' W 123°33'5 9.3
2018-Apr-23 01:30N 46°15' W 123°26'510.9
2018-Apr-23 01:00N 46°09' W 123°24'611.5
2018-Apr-23 00:30N 46°09' W 123°15'612.3
2018-Apr-23 00:00N 46°11' W 123°07'612.8
2018-Apr-22 23:30N 46°07' W 122°59'612.3
2018-Apr-22 23:00N 46°03' W 122°53'612.1
2018-Apr-22 22:30N 45°58' W 122°49'612.1
2018-Apr-22 22:00N 45°52' W 122°47'611.6
2018-Apr-22 21:29N 45°46' W 122°46'612.1
2018-Apr-22 21:00N 45°40' W 122°46'510.5
2018-Apr-22 20:30N 45°37' W 122°40'0 0.4
2018-Apr-22 19:57N 45°37' W 122°40'0 0.0
2018-Apr-22 19:27N 45°37' W 122°40'0 0.0
2018-Apr-22 18:57N 45°37' W 122°40'0 0.0
2018-Apr-22 18:30N 45°37' W 122°40'0 0.0
2018-Apr-22 17:57N 45°37' W 122°40'0 0.0
2018-Apr-22 17:30N 45°37' W 122°40'0 0.0
2018-Apr-22 16:27N 45°37' W 122°40'0 0.0
2018-Apr-22 16:00N 45°37' W 122°40'0 0.0
2018-Apr-22 15:30N 45°37' W 122°40'0 0.0
2018-Apr-22 14:45N 45°37' W 122°40'0 0.0
2018-Apr-22 14:27N 45°37' W 122°40'0 0.0
2018-Apr-22 14:00N 45°37' W 122°40'0 0.0
2018-Apr-22 13:30N 45°37' W 122°40'0 0.0
2018-Apr-22 12:57N 45°37' W 122°40'0 0.0
2018-Apr-22 12:27N 45°37' W 122°40'0 0.0
2018-Apr-22 12:00N 45°37' W 122°40'0 0.0
2018-Apr-22 11:27N 45°37' W 122°40'0 0.0
2018-Apr-22 10:57N 45°37' W 122°40'0 0.0
2018-Apr-22 10:15N 45°37' W 122°40'0 0.0
2018-Apr-22 10:00N 45°37' W 122°40'0 0.0
2018-Apr-22 09:30N 45°37' W 122°40'0 0.0
2018-Apr-22 08:57N 45°37' W 122°40'0 0.0
2018-Apr-22 08:21N 45°37' W 122°40'0 0.0
2018-Apr-22 07:57N 45°37' W 122°40'0 0.0
2018-Apr-22 06:48N 45°37' W 122°40'0 0.0
2018-Apr-22 06:21N 45°37' W 122°40'0 0.0
2018-Apr-22 05:57N 45°37' W 122°40'0 0.0
2018-Apr-22 05:12N 45°37' W 122°40'0 0.0
2018-Apr-22 04:24N 45°37' W 122°40'0 0.0
2018-Apr-22 04:01N 45°37' W 122°40'3 6.9
2018-Apr-22 03:30N 45°36' W 122°36'510.5
2018-Apr-22 03:01N 45°35' W 122°28'510.5
2018-Apr-22 02:30N 45°34' W 122°21'510.0
2018-Apr-22 02:00N 45°33' W 122°14'5 9.6
2018-Apr-22 01:30N 45°35' W 122°07'1 0.0
2018-Apr-21 00:27N 45°35' W 122°09'3 6.8
2018-Apr-20 23:58N 45°34' W 122°13'3 6.5
2018-Apr-20 23:30N 45°33' W 122°17'3 6.2
2018-Apr-20 22:59N 45°34' W 122°21'3 6.0
2018-Apr-20 22:27N 45°34' W 122°25'3 6.5
2018-Apr-20 22:00N 45°35' W 122°30'3 6.6
2018-Apr-20 21:30N 45°36' W 122°34'3 6.3
2018-Apr-20 21:00N 45°37' W 122°38'1 2.4
2018-Apr-20 20:25N 45°37' W 122°40'0 0.0
2018-Apr-20 18:58N 45°37' W 122°40'0 0.0
2018-Apr-20 18:19N 45°37' W 122°40'0 0.0
2018-Apr-20 17:58N 45°37' W 122°40'0 0.0
2018-Apr-20 17:04N 45°37' W 122°40'0 0.0
2018-Apr-20 16:52N 45°37' W 122°40'0 0.0
2018-Apr-20 16:19N 45°37' W 122°40'0 0.0
2018-Apr-20 15:58N 45°37' W 122°40'0 0.0
2018-Apr-20 15:30N 45°37' W 122°40'2 3.5
2018-Apr-20 14:58N 45°38' W 122°42'4 7.6
2018-Apr-20 14:30N 45°40' W 122°46'4 8.6
2018-Apr-20 14:00N 45°45' W 122°46'4 8.4
2018-Apr-20 13:30N 45°48' W 122°48'4 8.2
2018-Apr-20 13:00N 45°53' W 122°48'4 7.9
2018-Apr-20 12:30N 45°56' W 122°48'4 7.7
2018-Apr-20 12:00N 45°60' W 122°51'4 7.6
2018-Apr-20 11:31N 46°03' W 122°53'4 7.3
2018-Apr-20 11:01N 46°06' W 122°57'4 7.8
2018-Apr-20 10:30N 46°08' W 123°01'4 7.8
2018-Apr-20 10:00N 46°10' W 123°06'3 6.7
2018-Apr-20 09:30N 46°11' W 123°11'4 7.8
2018-Apr-20 09:01N 46°09' W 123°15'4 7.8
2018-Apr-20 08:30N 46°09' W 123°21'4 7.4
2018-Apr-20 08:00N 46°11' W 123°25'4 7.2
2018-Apr-20 07:28N 46°14' W 123°26'3 7.2
2018-Apr-20 07:00N 46°16' W 123°30'4 7.8
2018-Apr-20 06:31N 46°15' W 123°35'4 7.5
2018-Apr-20 06:00N 46°15' W 123°41'4 8.1
2018-Apr-20 05:30N 46°13' W 123°46'4 8.0
2018-Apr-20 05:01N 46°12' W 123°51'0 0.6
2018-Apr-20 04:29N 46°11' W 123°52'0 0.0
2018-Apr-20 03:59N 46°11' W 123°52'0 0.0
2018-Apr-20 03:29N 46°11' W 123°52'0 0.0
2018-Apr-20 02:59N 46°11' W 123°52'0 0.0
2018-Apr-20 02:29N 46°11' W 123°52'0 0.0
2018-Apr-20 01:59N 46°11' W 123°52'0 0.0
2018-Apr-20 01:29N 46°11' W 123°52'0 0.0
2018-Apr-20 00:59N 46°11' W 123°52'0 0.0
2018-Apr-20 00:26N 46°11' W 123°52'0 0.0
2018-Apr-19 23:58N 46°11' W 123°52'0 0.0
2018-Apr-19 23:29N 46°11' W 123°52'0 0.0
2018-Apr-19 22:59N 46°11' W 123°52'0 0.0
2018-Apr-19 22:29N 46°11' W 123°52'0 0.0
2018-Apr-19 21:59N 46°11' W 123°52'0 0.0
2018-Apr-19 21:29N 46°11' W 123°52'0 0.0
2018-Apr-19 20:58N 46°11' W 123°52'0 0.0
2018-Apr-19 20:29N 46°11' W 123°52'0 0.0
2018-Apr-19 19:59N 46°11' W 123°52'0 0.0
2018-Apr-19 19:29N 46°11' W 123°52'0 0.0
2018-Apr-19 18:59N 46°11' W 123°52'0 0.0
2018-Apr-19 18:29N 46°11' W 123°52'0 0.0
2018-Apr-19 17:59N 46°11' W 123°52'0 0.0
2018-Apr-19 17:29N 46°11' W 123°52'0 0.0
2018-Apr-19 16:59N 46°11' W 123°52'0 0.0
2018-Apr-19 16:29N 46°11' W 123°52'0 0.0
2018-Apr-19 15:59N 46°11' W 123°52'0 0.0
2018-Apr-19 15:10N 46°11' W 123°52'0 0.0
2018-Apr-19 14:58N 46°11' W 123°52'0 0.0
2018-Apr-19 14:28N 46°11' W 123°52'0 0.0
2018-Apr-19 13:58N 46°11' W 123°52'0 0.0
2018-Apr-19 13:25N 46°11' W 123°52'0 0.0
2018-Apr-19 12:58N 46°11' W 123°52'0 0.0
2018-Apr-19 12:28N 46°11' W 123°52'0 0.0
2018-Apr-19 11:56N 46°11' W 123°52'0 0.0
2018-Apr-19 11:20N 46°11' W 123°52'0 0.0
2018-Apr-19 10:58N 46°11' W 123°52'0 0.0
2018-Apr-19 10:29N 46°11' W 123°52'0 0.0
2018-Apr-19 09:55N 46°11' W 123°52'0 0.0
2018-Apr-19 09:29N 46°11' W 123°52'0 0.0
2018-Apr-19 08:59N 46°11' W 123°52'0 0.0
2018-Apr-19 08:29N 46°11' W 123°52'0 0.0
2018-Apr-19 07:59N 46°11' W 123°52'0 0.0
2018-Apr-19 07:28N 46°11' W 123°52'0 0.0
2018-Apr-19 06:55N 46°11' W 123°52'0 0.0
2018-Apr-19 06:17N 46°11' W 123°52'0 0.0
2018-Apr-19 05:58N 46°11' W 123°52'0 0.0
2018-Apr-19 05:28N 46°11' W 123°52'0 0.0
2018-Apr-19 04:58N 46°11' W 123°52'0 0.0
2018-Apr-19 04:31N 46°11' W 123°52'0 0.3
2018-Apr-19 04:00N 46°11' W 123°52'510.4
2018-Apr-19 03:30N 46°13' W 123°45'612.5
2018-Apr-19 03:01N 46°15' W 123°36'612.0
2018-Apr-19 02:31N 46°16' W 123°28'611.4
2018-Apr-19 02:00N 46°10' W 123°25'811.0
2018-Apr-19 01:19N 46°10' W 123°14'412.3
2018-Apr-19 01:00N 46°11' W 123°09'612.0
2018-Apr-19 00:30N 46°08' W 123°01'4 8.7
2018-Apr-19 00:01N 46°06' W 122°57'0 0.0
2018-Apr-18 23:31N 46°06' W 122°57'3 6.9
2018-Apr-18 23:01N 46°03' W 122°53'1011.8
2018-Apr-18 22:12N 45°54' W 122°48'512.2
2018-Apr-18 21:46N 45°49' W 122°48'312.3
2018-Apr-18 21:30N 45°46' W 122°46'612.1
2018-Apr-18 21:01N 45°40' W 122°46'510.6
2018-Apr-18 20:30N 45°37' W 122°40'0 0.4
2018-Apr-18 19:51N 45°37' W 122°40'0 0.0
2018-Apr-18 19:30N 45°37' W 122°40'0 0.0
2018-Apr-18 19:00N 45°37' W 122°40'0 0.0
2018-Apr-18 18:24N 45°37' W 122°40'0 0.0
2018-Apr-18 17:39N 45°37' W 122°40'0 0.0
2018-Apr-18 17:21N 45°37' W 122°40'0 0.0
2018-Apr-18 16:51N 45°37' W 122°40'0 0.0
2018-Apr-18 16:12N 45°37' W 122°40'0 0.0
2018-Apr-18 15:57N 45°37' W 122°40'0 0.0
2018-Apr-18 15:24N 45°37' W 122°40'0 0.0
2018-Apr-18 14:36N 45°37' W 122°40'0 0.0
2018-Apr-18 14:28N 45°37' W 122°40'0 0.0
2018-Apr-18 13:57N 45°37' W 122°40'0 0.0
2018-Apr-18 13:21N 45°37' W 122°40'0 0.0
2018-Apr-18 12:54N 45°37' W 122°40'0 0.0
2018-Apr-18 12:21N 45°37' W 122°40'0 0.0
2018-Apr-18 11:51N 45°37' W 122°40'0 0.0
2018-Apr-18 11:21N 45°37' W 122°40'0 0.0
2018-Apr-18 10:57N 45°37' W 122°40'0 0.0
2018-Apr-18 10:30N 45°37' W 122°40'0 0.0
2018-Apr-18 10:00N 45°37' W 122°40'0 0.0
2018-Apr-18 09:30N 45°37' W 122°40'0 0.0
2018-Apr-18 08:54N 45°37' W 122°40'0 0.0
2018-Apr-18 08:27N 45°37' W 122°40'0 0.0
2018-Apr-18 08:00N 45°37' W 122°40'0 0.0
2018-Apr-18 07:15N 45°37' W 122°40'0 0.0
2018-Apr-18 06:51N 45°37' W 122°40'0 0.0
2018-Apr-18 06:30N 45°37' W 122°40'0 0.0
2018-Apr-18 05:54N 45°37' W 122°40'0 0.0
2018-Apr-18 05:30N 45°37' W 122°40'4 7.2
2018-Apr-18 05:00N 45°36' W 122°35'612.0
2018-Apr-18 04:30N 45°34' W 122°27'611.3
2018-Apr-18 04:00N 45°33' W 122°19'611.1
2018-Apr-18 03:30N 45°34' W 122°12'510.1
2018-Apr-18 02:58N 45°36' W 122°04'3 0.1
2018-Apr-17 03:02N 45°37' W 122°01'0 4.9
2018-Apr-17 02:58N 45°37' W 122°01'5 7.9
2018-Apr-17 02:22N 45°35' W 122°07'3 7.8
2018-Apr-17 01:59N 45°34' W 122°12'4 8.3
2018-Apr-17 01:30N 45°33' W 122°17'4 8.0
2018-Apr-17 01:00N 45°34' W 122°22'4 7.3
2018-Apr-17 00:26N 45°34' W 122°28'3 8.0
2018-Apr-17 00:00N 45°36' W 122°33'4 7.8
2018-Apr-16 23:30N 45°37' W 122°38'4 7.7
2018-Apr-16 23:00N 45°38' W 122°43'4 7.3
2018-Apr-16 22:31N 45°41' W 122°46'4 7.6
2018-Apr-16 22:00N 45°45' W 122°46'4 7.3
2018-Apr-16 21:30N 45°48' W 122°47'3 7.1
2018-Apr-16 21:00N 45°52' W 122°47'5 7.1
2018-Apr-16 20:21N 45°56' W 122°48'2 7.1
2018-Apr-16 20:00N 45°58' W 122°50'1 2.6
2018-Apr-16 19:28N 45°60' W 122°51'0 0.0
2018-Apr-16 19:00N 45°60' W 122°51'0 0.0
2018-Apr-16 18:30N 45°60' W 122°51'0 0.0
2018-Apr-16 18:00N 45°60' W 122°51'0 0.0
2018-Apr-16 17:30N 45°60' W 122°51'0 0.0
2018-Apr-16 17:00N 45°60' W 122°51'0 0.0
2018-Apr-16 16:22N 45°60' W 122°51'0 0.0
2018-Apr-16 15:54N 45°60' W 122°51'0 0.0
2018-Apr-16 15:31N 45°60' W 122°51'0 0.1
2018-Apr-16 15:00N 45°60' W 122°51'3 6.4
2018-Apr-16 14:30N 46°03' W 122°53'3 6.9
2018-Apr-16 14:00N 46°06' W 122°55'4 7.6
2018-Apr-16 13:30N 46°08' W 123°00'4 7.7
2018-Apr-16 13:00N 46°10' W 123°05'4 7.9
2018-Apr-16 12:30N 46°11' W 123°10'4 7.5
2018-Apr-16 12:00N 46°10' W 123°15'4 7.3
2018-Apr-16 11:30N 46°09' W 123°20'3 6.9
2018-Apr-16 11:01N 46°10' W 123°24'3 6.1
2018-Apr-16 10:31N 46°13' W 123°26'4 7.0
2018-Apr-16 10:00N 46°16' W 123°28'4 7.2
2018-Apr-16 09:31N 46°15' W 123°33'4 8.2
2018-Apr-16 09:01N 46°16' W 123°39'4 8.6
2018-Apr-16 08:30N 46°14' W 123°44'4 9.0
2018-Apr-16 08:00N 46°12' W 123°50'1 2.1
2018-Apr-16 07:29N 46°11' W 123°52'0 0.0
2018-Apr-16 06:59N 46°11' W 123°52'0 0.0
2018-Apr-16 06:29N 46°11' W 123°52'0 0.0
2018-Apr-16 05:57N 46°11' W 123°52'0 0.0
2018-Apr-16 05:23N 46°11' W 123°52'0 0.0
2018-Apr-16 04:59N 46°11' W 123°52'0 0.0
2018-Apr-16 04:26N 46°11' W 123°52'0 0.0
2018-Apr-16 03:59N 46°11' W 123°52'0 0.0
2018-Apr-16 03:29N 46°11' W 123°52'0 0.0
2018-Apr-16 02:59N 46°11' W 123°52'0 0.1
2018-Apr-16 02:26N 46°11' W 123°52'0 0.1
2018-Apr-16 01:59N 46°11' W 123°52'0 0.0
2018-Apr-16 01:29N 46°11' W 123°52'0 0.0
2018-Apr-16 00:59N 46°11' W 123°52'0 0.0
2018-Apr-16 00:29N 46°11' W 123°52'0 0.0
2018-Apr-15 23:59N 46°11' W 123°52'0 0.0
2018-Apr-15 23:29N 46°11' W 123°52'0 0.0
2018-Apr-15 22:59N 46°11' W 123°52'0 0.0
2018-Apr-15 22:29N 46°11' W 123°52'0 0.0
2018-Apr-15 21:59N 46°11' W 123°52'0 0.0
2018-Apr-15 21:29N 46°11' W 123°52'0 0.0
2018-Apr-15 20:59N 46°11' W 123°52'0 0.0
2018-Apr-15 20:29N 46°11' W 123°52'0 0.1
2018-Apr-15 19:59N 46°11' W 123°52'0 0.1
2018-Apr-15 19:29N 46°11' W 123°52'0 0.0
2018-Apr-15 18:59N 46°11' W 123°52'0 0.0
2018-Apr-15 18:29N 46°11' W 123°52'0 0.1
2018-Apr-15 17:59N 46°11' W 123°52'0 0.1
2018-Apr-15 17:23N 46°11' W 123°52'0 0.0
2018-Apr-15 16:59N 46°11' W 123°52'0 0.0
2018-Apr-15 16:29N 46°11' W 123°52'0 0.0
2018-Apr-15 15:59N 46°11' W 123°52'0 0.1
2018-Apr-15 15:26N 46°11' W 123°52'0 0.1
2018-Apr-15 14:59N 46°11' W 123°52'0 0.0
2018-Apr-15 14:29N 46°11' W 123°52'0 0.0
2018-Apr-15 13:59N 46°11' W 123°52'0 0.0
2018-Apr-15 13:29N 46°11' W 123°52'0 0.0
2018-Apr-15 12:59N 46°11' W 123°52'  
Track history (hours):
 
Tides and Currents Weather Stations Pressure Air Temp Water Temp Dewpoint Dewpoint Depression Visibility Wind Speed Wind Dir Waves Ship Positions

Queen Of The West

Owner: American Cruise Lines Inc., Delmar, DE. More information available from US FCC via Universal Licensing System and Coast Guard Vessel Documentation Center.

Last reported at 2018-Apr-25 12:40 UTC. Time now 2018-Apr-26 03:40 UTC.
Position N 45°36' W 122°05'.

Length 19 m; draft 2 m.

Type: Passenger vessel. MMSI: 2548262.

Date/timePositionNaut miles runAvg speedWind from/ knotsBaromVisibWave heightAir tempDewpointWater temp
2018-Apr-25 12:40N 45°36' W 122°05'3 7.0
2018-Apr-25 12:18N 45°35' W 122°08'3 7.1
2018-Apr-25 11:52N 45°34' W 122°12'2 6.3
2018-Apr-25 11:30N 45°33' W 122°15'3 6.1
2018-Apr-25 11:00N 45°33' W 122°19'3 5.5
2018-Apr-25 10:30N 45°35' W 122°23'4 6.5
2018-Apr-25 09:57N 45°34' W 122°28'3 6.5
2018-Apr-25 09:30N 45°35' W 122°32'3 6.5
2018-Apr-25 09:00N 45°36' W 122°36'3 6.6
2018-Apr-25 08:30N 45°37' W 122°41'3 5.6
2018-Apr-25 08:00N 45°39' W 122°44'3 6.5
2018-Apr-25 07:30N 45°41' W 122°47'3 7.0
2018-Apr-25 07:00N 45°45' W 122°46'3 6.9
2018-Apr-25 06:30N 45°48' W 122°47'4 7.5
2018-Apr-25 06:01N 45°52' W 122°47'4 7.4
2018-Apr-25 05:30N 45°55' W 122°48'5 7.1
2018-Apr-25 04:51N 45°60' W 122°51'0 0.3
2018-Apr-25 04:30N 45°60' W 122°51'0 0.0
2018-Apr-25 03:42N 45°60' W 122°51'0 0.0
2018-Apr-25 03:30N 45°60' W 122°51'0 0.0
2018-Apr-25 03:00N 45°60' W 122°51'0 0.0
2018-Apr-25 02:30N 45°60' W 122°51'0 0.0
2018-Apr-25 01:57N 45°60' W 122°51'0 0.0
2018-Apr-25 01:27N 45°60' W 122°51'0 0.0
2018-Apr-25 01:00N 45°60' W 122°51'0 0.0
2018-Apr-25 00:30N 45°60' W 122°51'0 0.0
2018-Apr-24 23:54N 45°60' W 122°51'0 0.0
2018-Apr-24 23:30N 45°60' W 122°51'0 0.0
2018-Apr-24 23:00N 45°60' W 122°51'0 0.0
2018-Apr-24 22:31N 45°60' W 122°51'0 0.0
2018-Apr-24 22:00N 45°60' W 122°51'0 0.0
2018-Apr-24 21:30N 45°60' W 122°51'0 0.0
2018-Apr-24 20:41N 45°60' W 122°51'0 0.0
2018-Apr-24 20:31N 45°60' W 122°51'0 0.0
2018-Apr-24 20:01N 45°60' W 122°51'0 0.0
2018-Apr-24 19:30N 45°60' W 122°51'0 0.0
2018-Apr-24 19:00N 45°60' W 122°51'2 3.7
2018-Apr-24 18:30N 46°01' W 122°52'4 7.9
2018-Apr-24 18:00N 46°05' W 122°54'5 8.2
2018-Apr-24 17:21N 46°08' W 123°00'3 8.2
2018-Apr-24 17:01N 46°10' W 123°04'4 8.2
2018-Apr-24 16:31N 46°11' W 123°09'4 8.4
2018-Apr-24 16:00N 46°10' W 123°15'4 8.3
2018-Apr-24 15:30N 46°09' W 123°21'4 8.4
2018-Apr-24 15:00N 46°11' W 123°26'4 7.9
2018-Apr-24 14:30N 46°15' W 123°26'4 7.0
2018-Apr-24 14:00N 46°16' W 123°31'4 7.6
2018-Apr-24 13:30N 46°15' W 123°36'6 7.5
2018-Apr-24 12:44N 46°14' W 123°44'2 8.3
2018-Apr-24 12:31N 46°13' W 123°47'4 7.2
2018-Apr-24 12:01N 46°11' W 123°52'0 0.1
2018-Apr-24 11:28N 46°11' W 123°52'0 0.0
2018-Apr-24 10:58N 46°11' W 123°52'0 0.0
2018-Apr-24 10:28N 46°11' W 123°52'0 0.0
2018-Apr-24 09:58N 46°11' W 123°52'0 0.0
2018-Apr-24 09:28N 46°11' W 123°52'0 0.0
2018-Apr-24 08:58N 46°11' W 123°52'0 0.0
2018-Apr-24 08:28N 46°11' W 123°52'0 0.0
2018-Apr-24 07:58N 46°11' W 123°52'0 0.0
2018-Apr-24 07:28N 46°11' W 123°52'0 0.0
2018-Apr-24 06:58N 46°11' W 123°52'0 0.0
2018-Apr-24 06:28N 46°11' W 123°52'0 0.0
2018-Apr-24 05:58N 46°11' W 123°52'0 0.0
2018-Apr-24 05:28N 46°11' W 123°52'0 0.0
2018-Apr-24 04:58N 46°11' W 123°52'0 0.0
2018-Apr-24 04:25N 46°11' W 123°52'0 0.0
2018-Apr-24 03:58N 46°11' W 123°52'0 0.0
2018-Apr-24 03:28N 46°11' W 123°52'0 0.0
2018-Apr-24 02:58N 46°11' W 123°52'0 0.0
2018-Apr-24 02:28N 46°11' W 123°52'0 0.0
2018-Apr-24 01:58N 46°11' W 123°52'0 0.0
2018-Apr-24 01:28N 46°11' W 123°52'0 0.0
2018-Apr-24 00:52N 46°11' W 123°52'0 0.0
2018-Apr-24 00:28N 46°11' W 123°52'0 0.0
2018-Apr-23 23:58N 46°11' W 123°52'0 0.0
2018-Apr-23 23:28N 46°11' W 123°52'0 0.0
2018-Apr-23 22:58N 46°11' W 123°52'0 0.0
2018-Apr-23 22:28N 46°11' W 123°52'0 0.0
2018-Apr-23 21:52N 46°11' W 123°52'0 0.0
2018-Apr-23 21:28N 46°11' W 123°52'0 0.0
2018-Apr-23 20:58N 46°11' W 123°52'0 0.0
2018-Apr-23 20:25N 46°11' W 123°52'0 0.0
2018-Apr-23 19:58N 46°11' W 123°52'0 0.0
2018-Apr-23 19:10N 46°11' W 123°52'0 0.0
2018-Apr-23 18:58N 46°11' W 123°52'0 0.0
2018-Apr-23 18:25N 46°11' W 123°52'0 0.0
2018-Apr-23 17:55N 46°11' W 123°52'0 0.0
2018-Apr-23 17:28N 46°11' W 123°52'0 0.0
2018-Apr-23 16:58N 46°11' W 123°52'0 0.0
2018-Apr-23 16:16N 46°11' W 123°52'0 0.0
2018-Apr-23 15:58N 46°11' W 123°52'0 0.0
2018-Apr-23 15:28N 46°11' W 123°52'0 0.0
2018-Apr-23 14:58N 46°11' W 123°52'0 0.0
2018-Apr-23 14:25N 46°11' W 123°52'0 0.0
2018-Apr-23 13:58N 46°11' W 123°52'0 0.0
2018-Apr-23 13:28N 46°11' W 123°52'0 0.0
2018-Apr-23 12:58N 46°11' W 123°52'0 0.0
2018-Apr-23 12:25N 46°11' W 123°52'0 0.0
2018-Apr-23 11:58N 46°11' W 123°52'0 0.0
2018-Apr-23 11:28N 46°11' W 123°52'0 0.0
2018-Apr-23 10:58N 46°11' W 123°52'0 0.0
2018-Apr-23 10:25N 46°11' W 123°52'0 0.0
2018-Apr-23 09:58N 46°11' W 123°52'0 0.0
2018-Apr-23 09:28N 46°11' W 123°52'0 0.0
2018-Apr-23 08:58N 46°11' W 123°52'0 0.0
2018-Apr-23 08:28N 46°11' W 123°52'0 0.0
2018-Apr-23 07:58N 46°11' W 123°52'0 0.0
2018-Apr-23 07:28N 46°11' W 123°52'0 0.0
2018-Apr-23 06:58N 46°11' W 123°52'0 0.0
2018-Apr-23 06:28N 46°11' W 123°52'0 0.0
2018-Apr-23 05:58N 46°11' W 123°52'0 0.0
2018-Apr-23 05:28N 46°11' W 123°52'0 0.0
2018-Apr-23 04:55N 46°11' W 123°52'0 0.0
2018-Apr-23 04:28N 46°11' W 123°52'0 0.0
2018-Apr-23 03:58N 46°11' W 123°52'0 0.1
2018-Apr-23 03:30N 46°11' W 123°52'4 8.2
2018-Apr-23 03:00N 46°13' W 123°46'5 9.9
2018-Apr-23 02:30N 46°15' W 123°40'510.0
2018-Apr-23 02:00N 46°16' W 123°33'5 9.3
2018-Apr-23 01:30N 46°15' W 123°26'510.9
2018-Apr-23 01:00N 46°09' W 123°24'611.5
2018-Apr-23 00:30N 46°09' W 123°15'612.3
2018-Apr-23 00:00N 46°11' W 123°07'612.8
2018-Apr-22 23:30N 46°07' W 122°59'612.3
2018-Apr-22 23:00N 46°03' W 122°53'612.1
2018-Apr-22 22:30N 45°58' W 122°49'612.1
2018-Apr-22 22:00N 45°52' W 122°47'611.6
2018-Apr-22 21:29N 45°46' W 122°46'612.1
2018-Apr-22 21:00N 45°40' W 122°46'510.5
2018-Apr-22 20:30N 45°37' W 122°40'0 0.4
2018-Apr-22 19:57N 45°37' W 122°40'0 0.0
2018-Apr-22 19:27N 45°37' W 122°40'0 0.0
2018-Apr-22 18:57N 45°37' W 122°40'0 0.0
2018-Apr-22 18:30N 45°37' W 122°40'0 0.0
2018-Apr-22 17:57N 45°37' W 122°40'0 0.0
2018-Apr-22 17:30N 45°37' W 122°40'0 0.0
2018-Apr-22 16:27N 45°37' W 122°40'0 0.0
2018-Apr-22 16:00N 45°37' W 122°40'0 0.0
2018-Apr-22 15:30N 45°37' W 122°40'0 0.0
2018-Apr-22 14:45N 45°37' W 122°40'0 0.0
2018-Apr-22 14:27N 45°37' W 122°40'0 0.0
2018-Apr-22 14:00N 45°37' W 122°40'0 0.0
2018-Apr-22 13:30N 45°37' W 122°40'0 0.0
2018-Apr-22 12:57N 45°37' W 122°40'0 0.0
2018-Apr-22 12:27N 45°37' W 122°40'0 0.0
2018-Apr-22 12:00N 45°37' W 122°40'0 0.0
2018-Apr-22 11:27N 45°37' W 122°40'0 0.0
2018-Apr-22 10:57N 45°37' W 122°40'0 0.0
2018-Apr-22 10:15N 45°37' W 122°40'0 0.0
2018-Apr-22 10:00N 45°37' W 122°40'0 0.0
2018-Apr-22 09:30N 45°37' W 122°40'0 0.0
2018-Apr-22 08:57N 45°37' W 122°40'0 0.0
2018-Apr-22 08:21N 45°37' W 122°40'0 0.0
2018-Apr-22 07:57N 45°37' W 122°40'0 0.0
2018-Apr-22 06:48N 45°37' W 122°40'0 0.0
2018-Apr-22 06:21N 45°37' W 122°40'0 0.0
2018-Apr-22 05:57N 45°37' W 122°40'0 0.0
2018-Apr-22 05:12N 45°37' W 122°40'0 0.0
2018-Apr-22 04:24N 45°37' W 122°40'0 0.0
2018-Apr-22 04:01N 45°37' W 122°40'3 6.9
2018-Apr-22 03:30N 45°36' W 122°36'510.5
2018-Apr-22 03:01N 45°35' W 122°28'510.5
2018-Apr-22 02:30N 45°34' W 122°21'510.0
2018-Apr-22 02:00N 45°33' W 122°14'5 9.6
2018-Apr-22 01:30N 45°35' W 122°07'1 0.0
2018-Apr-21 00:27N 45°35' W 122°09'3 6.8
2018-Apr-20 23:58N 45°34' W 122°13'3 6.5
2018-Apr-20 23:30N 45°33' W 122°17'3 6.2
2018-Apr-20 22:59N 45°34' W 122°21'3 6.0
2018-Apr-20 22:27N 45°34' W 122°25'3 6.5
2018-Apr-20 22:00N 45°35' W 122°30'3 6.6
2018-Apr-20 21:30N 45°36' W 122°34'3 6.3
2018-Apr-20 21:00N 45°37' W 122°38'1 2.4
2018-Apr-20 20:25N 45°37' W 122°40'0 0.0
2018-Apr-20 18:58N 45°37' W 122°40'0 0.0
2018-Apr-20 18:19N 45°37' W 122°40'0 0.0
2018-Apr-20 17:58N 45°37' W 122°40'0 0.0
2018-Apr-20 17:04N 45°37' W 122°40'0 0.0
2018-Apr-20 16:52N 45°37' W 122°40'0 0.0
2018-Apr-20 16:19N 45°37' W 122°40'0 0.0
2018-Apr-20 15:58N 45°37' W 122°40'0 0.0
2018-Apr-20 15:30N 45°37' W 122°40'2 3.5
2018-Apr-20 14:58N 45°38' W 122°42'4 7.6
2018-Apr-20 14:30N 45°40' W 122°46'4 8.6
2018-Apr-20 14:00N 45°45' W 122°46'4 8.4
2018-Apr-20 13:30N 45°48' W 122°48'4 8.2
2018-Apr-20 13:00N 45°53' W 122°48'4 7.9
2018-Apr-20 12:30N 45°56' W 122°48'4 7.7
2018-Apr-20 12:00N 45°60' W 122°51'4 7.6
2018-Apr-20 11:31N 46°03' W 122°53'4 7.3
2018-Apr-20 11:01N 46°06' W 122°57'4 7.8
2018-Apr-20 10:30N 46°08' W 123°01'4 7.8
2018-Apr-20 10:00N 46°10' W 123°06'3 6.7
2018-Apr-20 09:30N 46°11' W 123°11'4 7.8
2018-Apr-20 09:01N 46°09' W 123°15'4 7.8
2018-Apr-20 08:30N 46°09' W 123°21'4 7.4
2018-Apr-20 08:00N 46°11' W 123°25'4 7.2
2018-Apr-20 07:28N 46°14' W 123°26'3 7.2
2018-Apr-20 07:00N 46°16' W 123°30'4 7.8
2018-Apr-20 06:31N 46°15' W 123°35'4 7.5
2018-Apr-20 06:00N 46°15' W 123°41'4 8.1
2018-Apr-20 05:30N 46°13' W 123°46'4 8.0
2018-Apr-20 05:01N 46°12' W 123°51'0 0.6
2018-Apr-20 04:29N 46°11' W 123°52'0 0.0
2018-Apr-20 03:59N 46°11' W 123°52'0 0.0
2018-Apr-20 03:29N 46°11' W 123°52'0 0.0
2018-Apr-20 02:59N 46°11' W 123°52'0 0.0
2018-Apr-20 02:29N 46°11' W 123°52'0 0.0
2018-Apr-20 01:59N 46°11' W 123°52'0 0.0
2018-Apr-20 01:29N 46°11' W 123°52'0 0.0
2018-Apr-20 00:59N 46°11' W 123°52'0 0.0
2018-Apr-20 00:26N 46°11' W 123°52'0 0.0
2018-Apr-19 23:58N 46°11' W 123°52'0 0.0
2018-Apr-19 23:29N 46°11' W 123°52'0 0.0
2018-Apr-19 22:59N 46°11' W 123°52'0 0.0
2018-Apr-19 22:29N 46°11' W 123°52'0 0.0
2018-Apr-19 21:59N 46°11' W 123°52'0 0.0
2018-Apr-19 21:29N 46°11' W 123°52'0 0.0
2018-Apr-19 20:58N 46°11' W 123°52'0 0.0
2018-Apr-19 20:29N 46°11' W 123°52'0 0.0
2018-Apr-19 19:59N 46°11' W 123°52'0 0.0
2018-Apr-19 19:29N 46°11' W 123°52'0 0.0
2018-Apr-19 18:59N 46°11' W 123°52'0 0.0
2018-Apr-19 18:29N 46°11' W 123°52'0 0.0
2018-Apr-19 17:59N 46°11' W 123°52'0 0.0
2018-Apr-19 17:29N 46°11' W 123°52'0 0.0
2018-Apr-19 16:59N 46°11' W 123°52'0 0.0
2018-Apr-19 16:29N 46°11' W 123°52'0 0.0
2018-Apr-19 15:59N 46°11' W 123°52'0 0.0
2018-Apr-19 15:10N 46°11' W 123°52'0 0.0
2018-Apr-19 14:58N 46°11' W 123°52'0 0.0
2018-Apr-19 14:28N 46°11' W 123°52'0 0.0
2018-Apr-19 13:58N 46°11' W 123°52'0 0.0
2018-Apr-19 13:25N 46°11' W 123°52'0 0.0
2018-Apr-19 12:58N 46°11' W 123°52'0 0.0
2018-Apr-19 12:28N 46°11' W 123°52'0 0.0
2018-Apr-19 11:56N 46°11' W 123°52'0 0.0
2018-Apr-19 11:20N 46°11' W 123°52'0 0.0
2018-Apr-19 10:58N 46°11' W 123°52'0 0.0
2018-Apr-19 10:29N 46°11' W 123°52'0 0.0
2018-Apr-19 09:55N 46°11' W 123°52'0 0.0
2018-Apr-19 09:29N 46°11' W 123°52'0 0.0
2018-Apr-19 08:59N 46°11' W 123°52'0 0.0
2018-Apr-19 08:29N 46°11' W 123°52'0 0.0
2018-Apr-19 07:59N 46°11' W 123°52'0 0.0
2018-Apr-19 07:28N 46°11' W 123°52'0 0.0
2018-Apr-19 06:55N 46°11' W 123°52'0 0.0
2018-Apr-19 06:17N 46°11' W 123°52'0 0.0
2018-Apr-19 05:58N 46°11' W 123°52'0 0.0
2018-Apr-19 05:28N 46°11' W 123°52'0 0.0
2018-Apr-19 04:58N 46°11' W 123°52'0 0.0
2018-Apr-19 04:31N 46°11' W 123°52'0 0.3
2018-Apr-19 04:00N 46°11' W 123°52'510.4
2018-Apr-19 03:30N 46°13' W 123°45'612.5
2018-Apr-19 03:01N 46°15' W 123°36'612.0
2018-Apr-19 02:31N 46°16' W 123°28'611.4
2018-Apr-19 02:00N 46°10' W 123°25'811.0
2018-Apr-19 01:19N 46°10' W 123°14'412.3
2018-Apr-19 01:00N 46°11' W 123°09'612.0
2018-Apr-19 00:30N 46°08' W 123°01'4 8.7
2018-Apr-19 00:01N 46°06' W 122°57'0 0.0
2018-Apr-18 23:31N 46°06' W 122°57'3 6.9
2018-Apr-18 23:01N 46°03' W 122°53'1011.8
2018-Apr-18 22:12N 45°54' W 122°48'512.2
2018-Apr-18 21:46N 45°49' W 122°48'312.3
2018-Apr-18 21:30N 45°46' W 122°46'612.1
2018-Apr-18 21:01N 45°40' W 122°46'510.6
2018-Apr-18 20:30N 45°37' W 122°40'0 0.4
2018-Apr-18 19:51N 45°37' W 122°40'0 0.0
2018-Apr-18 19:30N 45°37' W 122°40'0 0.0
2018-Apr-18 19:00N 45°37' W 122°40'0 0.0
2018-Apr-18 18:24N 45°37' W 122°40'0 0.0
2018-Apr-18 17:39N 45°37' W 122°40'0 0.0
2018-Apr-18 17:21N 45°37' W 122°40'0 0.0
2018-Apr-18 16:51N 45°37' W 122°40'0 0.0
2018-Apr-18 16:12N 45°37' W 122°40'0 0.0
2018-Apr-18 15:57N 45°37' W 122°40'0 0.0
2018-Apr-18 15:24N 45°37' W 122°40'0 0.0
2018-Apr-18 14:36N 45°37' W 122°40'0 0.0
2018-Apr-18 14:28N 45°37' W 122°40'0 0.0
2018-Apr-18 13:57N 45°37' W 122°40'0 0.0
2018-Apr-18 13:21N 45°37' W 122°40'0 0.0
2018-Apr-18 12:54N 45°37' W 122°40'0 0.0
2018-Apr-18 12:21N 45°37' W 122°40'0 0.0
2018-Apr-18 11:51N 45°37' W 122°40'0 0.0
2018-Apr-18 11:21N 45°37' W 122°40'0 0.0
2018-Apr-18 10:57N 45°37' W 122°40'0 0.0
2018-Apr-18 10:30N 45°37' W 122°40'0 0.0
2018-Apr-18 10:00N 45°37' W 122°40'0 0.0
2018-Apr-18 09:30N 45°37' W 122°40'0 0.0
2018-Apr-18 08:54N 45°37' W 122°40'0 0.0
2018-Apr-18 08:27N 45°37' W 122°40'0 0.0
2018-Apr-18 08:00N 45°37' W 122°40'0 0.0
2018-Apr-18 07:15N 45°37' W 122°40'0 0.0
2018-Apr-18 06:51N 45°37' W 122°40'0 0.0
2018-Apr-18 06:30N 45°37' W 122°40'0 0.0
2018-Apr-18 05:54N 45°37' W 122°40'0 0.0
2018-Apr-18 05:30N 45°37' W 122°40'4 7.2
2018-Apr-18 05:00N 45°36' W 122°35'612.0
2018-Apr-18 04:30N 45°34' W 122°27'611.3
2018-Apr-18 04:00N 45°33' W 122°19'611.1
2018-Apr-18 03:30N 45°34' W 122°12'510.1
2018-Apr-18 02:58N 45°36' W 122°04'3 0.1
2018-Apr-17 03:02N 45°37' W 122°01'0 4.9
2018-Apr-17 02:58N 45°37' W 122°01'5 7.9
2018-Apr-17 02:22N 45°35' W 122°07'3 7.8
2018-Apr-17 01:59N 45°34' W 122°12'4 8.3
2018-Apr-17 01:30N 45°33' W 122°17'4 8.0
2018-Apr-17 01:00N 45°34' W 122°22'4 7.3
2018-Apr-17 00:26N 45°34' W 122°28'3 8.0
2018-Apr-17 00:00N 45°36' W 122°33'4 7.8
2018-Apr-16 23:30N 45°37' W 122°38'4 7.7
2018-Apr-16 23:00N 45°38' W 122°43'4 7.3
2018-Apr-16 22:31N 45°41' W 122°46'4 7.6
2018-Apr-16 22:00N 45°45' W 122°46'4 7.3
2018-Apr-16 21:30N 45°48' W 122°47'3 7.1
2018-Apr-16 21:00N 45°52' W 122°47'5 7.1
2018-Apr-16 20:21N 45°56' W 122°48'2 7.1
2018-Apr-16 20:00N 45°58' W 122°50'1 2.6
2018-Apr-16 19:28N 45°60' W 122°51'0 0.0
2018-Apr-16 19:00N 45°60' W 122°51'0 0.0
2018-Apr-16 18:30N 45°60' W 122°51'0 0.0
2018-Apr-16 18:00N 45°60' W 122°51'0 0.0
2018-Apr-16 17:30N 45°60' W 122°51'0 0.0
2018-Apr-16 17:00N 45°60' W 122°51'0 0.0
2018-Apr-16 16:22N 45°60' W 122°51'0 0.0
2018-Apr-16 15:54N 45°60' W 122°51'0 0.0
2018-Apr-16 15:31N 45°60' W 122°51'0 0.1
2018-Apr-16 15:00N 45°60' W 122°51'3 6.4
2018-Apr-16 14:30N 46°03' W 122°53'3 6.9
2018-Apr-16 14:00N 46°06' W 122°55'4 7.6
2018-Apr-16 13:30N 46°08' W 123°00'4 7.7
2018-Apr-16 13:00N 46°10' W 123°05'4 7.9
2018-Apr-16 12:30N 46°11' W 123°10'4 7.5
2018-Apr-16 12:00N 46°10' W 123°15'4 7.3
2018-Apr-16 11:30N 46°09' W 123°20'3 6.9
2018-Apr-16 11:01N 46°10' W 123°24'3 6.1
2018-Apr-16 10:31N 46°13' W 123°26'4 7.0
2018-Apr-16 10:00N 46°16' W 123°28'4 7.2
2018-Apr-16 09:31N 46°15' W 123°33'4 8.2
2018-Apr-16 09:01N 46°16' W 123°39'4 8.6
2018-Apr-16 08:30N 46°14' W 123°44'4 9.0
2018-Apr-16 08:00N 46°12' W 123°50'1 2.1
2018-Apr-16 07:29N 46°11' W 123°52'0 0.0
2018-Apr-16 06:59N 46°11' W 123°52'0 0.0
2018-Apr-16 06:29N 46°11' W 123°52'0 0.0
2018-Apr-16 05:57N 46°11' W 123°52'0 0.0
2018-Apr-16 05:23N 46°11' W 123°52'0 0.0
2018-Apr-16 04:59N 46°11' W 123°52'0 0.0
2018-Apr-16 04:26N 46°11' W 123°52'0 0.0
2018-Apr-16 03:59N 46°11' W 123°52'0 0.0
2018-Apr-16 03:29N 46°11' W 123°52'0 0.0
2018-Apr-16 02:59N 46°11' W 123°52'0 0.1
2018-Apr-16 02:26N 46°11' W 123°52'0 0.1
2018-Apr-16 01:59N 46°11' W 123°52'0 0.0
2018-Apr-16 01:29N 46°11' W 123°52'0 0.0
2018-Apr-16 00:59N 46°11' W 123°52'0 0.0
2018-Apr-16 00:29N 46°11' W 123°52'0 0.0
2018-Apr-15 23:59N 46°11' W 123°52'0 0.0
2018-Apr-15 23:29N 46°11' W 123°52'0 0.0
2018-Apr-15 22:59N 46°11' W 123°52'0 0.0
2018-Apr-15 22:29N 46°11' W 123°52'0 0.0
2018-Apr-15 21:59N 46°11' W 123°52'0 0.0
2018-Apr-15 21:29N 46°11' W 123°52'0 0.0
2018-Apr-15 20:59N 46°11' W 123°52'0 0.0
2018-Apr-15 20:29N 46°11' W 123°52'0 0.1
2018-Apr-15 19:59N 46°11' W 123°52'0 0.1
2018-Apr-15 19:29N 46°11' W 123°52'0 0.0
2018-Apr-15 18:59N 46°11' W 123°52'0 0.0
2018-Apr-15 18:29N 46°11' W 123°52'0 0.1
2018-Apr-15 17:59N 46°11' W 123°52'0 0.1
2018-Apr-15 17:23N 46°11' W 123°52'0 0.0
2018-Apr-15 16:59N 46°11' W 123°52'0 0.0
2018-Apr-15 16:29N 46°11' W 123°52'0 0.0
2018-Apr-15 15:59N 46°11' W 123°52'0 0.1
2018-Apr-15 15:26N 46°11' W 123°52'0 0.1
2018-Apr-15 14:59N 46°11' W 123°52'0 0.0
2018-Apr-15 14:29N 46°11' W 123°52'0 0.0
2018-Apr-15 13:59N 46°11' W 123°52'0 0.0
2018-Apr-15 13:29N 46°11' W 123°52'0 0.0
2018-Apr-15 12:59N 46°11' W 123°52'  

Dump ship's entire track history